sensor_id;sensor_type;location;lat;lon;timestamp;temperature;humidity
59572;DHT22;59406;45.602;11.904;2023-04-03T00:00:26;20.70;85.80
59572;DHT22;59406;45.602;11.904;2023-04-03T00:02:52;20.70;86.10
59572;DHT22;59406;45.602;11.904;2023-04-03T00:05:19;20.70;86.20
59572;DHT22;59406;45.602;11.904;2023-04-03T00:07:44;20.80;85.20
59572;DHT22;59406;45.602;11.904;2023-04-03T00:10:12;20.70;85.00
59572;DHT22;59406;45.602;11.904;2023-04-03T00:12:39;20.70;85.00
59572;DHT22;59406;45.602;11.904;2023-04-03T00:15:05;20.70;85.80
59572;DHT22;59406;45.602;11.904;2023-04-03T00:17:31;20.70;86.30
59572;DHT22;59406;45.602;11.904;2023-04-03T00:19:57;20.70;86.10
59572;DHT22;59406;45.602;11.904;2023-04-03T00:22:23;20.70;84.90
59572;DHT22;59406;45.602;11.904;2023-04-03T00:24:52;20.60;84.40
59572;DHT22;59406;45.602;11.904;2023-04-03T00:27:18;20.70;84.20
59572;DHT22;59406;45.602;11.904;2023-04-03T00:29:43;20.60;83.90
59572;DHT22;59406;45.602;11.904;2023-04-03T00:32:09;20.60;84.60
59572;DHT22;59406;45.602;11.904;2023-04-03T00:34:35;20.70;84.20
59572;DHT22;59406;45.602;11.904;2023-04-03T00:37:01;20.70;85.40
59572;DHT22;59406;45.602;11.904;2023-04-03T00:39:27;20.60;85.60
59572;DHT22;59406;45.602;11.904;2023-04-03T00:41:53;20.60;85.20
59572;DHT22;59406;45.602;11.904;2023-04-03T00:47:07;20.70;82.20
59572;DHT22;59406;45.602;11.904;2023-04-03T00:49:34;20.60;84.00
59572;DHT22;59406;45.602;11.904;2023-04-03T00:52:01;20.60;83.70
59572;DHT22;59406;45.602;11.904;2023-04-03T00:54:28;20.60;83.50
59572;DHT22;59406;45.602;11.904;2023-04-03T00:56:56;20.60;84.10
59572;DHT22;59406;45.602;11.904;2023-04-03T00:59:32;20.60;85.40
59572;DHT22;59406;45.602;11.904;2023-04-03T01:02:00;20.50;84.80
59572;DHT22;59406;45.602;11.904;2023-04-03T01:04:35;20.60;83.60
59572;DHT22;59406;45.602;11.904;2023-04-03T01:07:11;20.60;80.80
59572;DHT22;59406;45.602;11.904;2023-04-03T01:09:38;20.60;82.20
59572;DHT22;59406;45.602;11.904;2023-04-03T01:14:57;20.60;80.50
59572;DHT22;59406;45.602;11.904;2023-04-03T01:25:32;20.60;82.50
59572;DHT22;59406;45.602;11.904;2023-04-03T01:27:58;20.50;83.20
59572;DHT22;59406;45.602;11.904;2023-04-03T01:30:34;20.50;83.30
59572;DHT22;59406;45.602;11.904;2023-04-03T01:33:01;20.50;84.20
59572;DHT22;59406;45.602;11.904;2023-04-03T01:35:27;20.60;84.50
59572;DHT22;59406;45.602;11.904;2023-04-03T01:37:53;20.40;84.40
59572;DHT22;59406;45.602;11.904;2023-04-03T01:40:19;20.50;84.70
59572;DHT22;59406;45.602;11.904;2023-04-03T01:42:45;20.50;84.30
59572;DHT22;59406;45.602;11.904;2023-04-03T01:45:11;20.40;85.30
59572;DHT22;59406;45.602;11.904;2023-04-03T01:47:37;20.40;85.20
59572;DHT22;59406;45.602;11.904;2023-04-03T01:50:03;20.40;84.60
59572;DHT22;59406;45.602;11.904;2023-04-03T01:52:29;20.50;84.80
59572;DHT22;59406;45.602;11.904;2023-04-03T01:54:56;20.50;84.80
59572;DHT22;59406;45.602;11.904;2023-04-03T01:57:22;20.50;84.00
59572;DHT22;59406;45.602;11.904;2023-04-03T01:59:47;20.40;84.00
59572;DHT22;59406;45.602;11.904;2023-04-03T02:02:13;20.50;82.70
59572;DHT22;59406;45.602;11.904;2023-04-03T02:04:40;20.50;84.10
59572;DHT22;59406;45.602;11.904;2023-04-03T02:07:06;20.40;84.70
59572;DHT22;59406;45.602;11.904;2023-04-03T02:09:32;20.40;83.60
59572;DHT22;59406;45.602;11.904;2023-04-03T02:11:58;20.40;84.90
59572;DHT22;59406;45.602;11.904;2023-04-03T02:14:25;20.40;84.30
59572;DHT22;59406;45.602;11.904;2023-04-03T02:16:53;20.40;85.90
59572;DHT22;59406;45.602;11.904;2023-04-03T02:19:19;20.40;85.80
59572;DHT22;59406;45.602;11.904;2023-04-03T02:21:45;20.40;86.20
59572;DHT22;59406;45.602;11.904;2023-04-03T02:24:10;20.40;85.60
59572;DHT22;59406;45.602;11.904;2023-04-03T02:26:36;20.30;83.50
59572;DHT22;59406;45.602;11.904;2023-04-03T02:29:02;20.40;82.70
59572;DHT22;59406;45.602;11.904;2023-04-03T02:31:28;20.30;82.80
59572;DHT22;59406;45.602;11.904;2023-04-03T02:33:55;20.40;82.60
59572;DHT22;59406;45.602;11.904;2023-04-03T02:36:20;20.30;82.60
59572;DHT22;59406;45.602;11.904;2023-04-03T02:38:46;20.30;82.00
59572;DHT22;59406;45.602;11.904;2023-04-03T02:41:14;20.30;81.70
59572;DHT22;59406;45.602;11.904;2023-04-03T02:43:40;20.40;82.10
59572;DHT22;59406;45.602;11.904;2023-04-03T02:46:06;20.30;80.90
59572;DHT22;59406;45.602;11.904;2023-04-03T02:48:32;20.40;80.90
59572;DHT22;59406;45.602;11.904;2023-04-03T02:50:59;20.30;80.80
59572;DHT22;59406;45.602;11.904;2023-04-03T02:53:24;20.30;80.60
59572;DHT22;59406;45.602;11.904;2023-04-03T02:55:50;20.30;79.90
59572;DHT22;59406;45.602;11.904;2023-04-03T02:58:16;20.40;79.40
59572;DHT22;59406;45.602;11.904;2023-04-03T03:00:43;20.30;79.20
59572;DHT22;59406;45.602;11.904;2023-04-03T03:03:08;20.30;78.70
59572;DHT22;59406;45.602;11.904;2023-04-03T03:05:34;20.30;78.50
59572;DHT22;59406;45.602;11.904;2023-04-03T03:08:01;20.20;78.80
59572;DHT22;59406;45.602;11.904;2023-04-03T03:10:27;20.20;78.70
59572;DHT22;59406;45.602;11.904;2023-04-03T03:12:53;20.30;78.40
59572;DHT22;59406;45.602;11.904;2023-04-03T03:15:20;20.20;78.00
59572;DHT22;59406;45.602;11.904;2023-04-03T03:17:46;20.10;79.00
59572;DHT22;59406;45.602;11.904;2023-04-03T03:20:12;20.20;80.00
59572;DHT22;59406;45.602;11.904;2023-04-03T03:22:41;20.30;81.60
59572;DHT22;59406;45.602;11.904;2023-04-03T03:25:07;20.10;82.60
59572;DHT22;59406;45.602;11.904;2023-04-03T03:27:33;20.20;83.40
59572;DHT22;59406;45.602;11.904;2023-04-03T03:30:00;20.20;83.80
59572;DHT22;59406;45.602;11.904;2023-04-03T03:32:26;20.20;83.10
59572;DHT22;59406;45.602;11.904;2023-04-03T03:34:52;20.20;83.20
59572;DHT22;59406;45.602;11.904;2023-04-03T03:37:18;20.20;84.30
59572;DHT22;59406;45.602;11.904;2023-04-03T03:39:44;20.20;83.70
59572;DHT22;59406;45.602;11.904;2023-04-03T03:42:10;20.20;83.70
59572;DHT22;59406;45.602;11.904;2023-04-03T03:44:36;20.20;82.60
59572;DHT22;59406;45.602;11.904;2023-04-03T03:49:32;20.20;81.40
59572;DHT22;59406;45.602;11.904;2023-04-03T03:51:58;20.20;81.30
59572;DHT22;59406;45.602;11.904;2023-04-03T03:54:24;20.10;81.30
59572;DHT22;59406;45.602;11.904;2023-04-03T03:56:56;20.10;81.30
59572;DHT22;59406;45.602;11.904;2023-04-03T03:59:22;20.20;84.50
59572;DHT22;59406;45.602;11.904;2023-04-03T04:01:47;20.20;84.30
59572;DHT22;59406;45.602;11.904;2023-04-03T04:04:13;20.10;84.50
59572;DHT22;59406;45.602;11.904;2023-04-03T04:06:39;20.20;83.60
59572;DHT22;59406;45.602;11.904;2023-04-03T04:09:05;20.20;83.80
59572;DHT22;59406;45.602;11.904;2023-04-03T04:11:31;20.20;83.70
59572;DHT22;59406;45.602;11.904;2023-04-03T04:13:58;20.10;83.60
59572;DHT22;59406;45.602;11.904;2023-04-03T04:16:24;20.20;83.90
59572;DHT22;59406;45.602;11.904;2023-04-03T04:18:50;20.10;83.30
59572;DHT22;59406;45.602;11.904;2023-04-03T04:21:16;20.10;83.00
59572;DHT22;59406;45.602;11.904;2023-04-03T04:23:42;20.10;83.20
59572;DHT22;59406;45.602;11.904;2023-04-03T04:26:08;20.10;84.10
59572;DHT22;59406;45.602;11.904;2023-04-03T04:28:34;20.10;84.10
59572;DHT22;59406;45.602;11.904;2023-04-03T04:31:00;20.10;84.70
59572;DHT22;59406;45.602;11.904;2023-04-03T04:33:26;20.10;85.10
59572;DHT22;59406;45.602;11.904;2023-04-03T04:35:52;20.00;85.60
59572;DHT22;59406;45.602;11.904;2023-04-03T04:38:18;20.10;84.40
59572;DHT22;59406;45.602;11.904;2023-04-03T04:40:44;20.10;85.70
59572;DHT22;59406;45.602;11.904;2023-04-03T04:43:10;20.10;84.10
59572;DHT22;59406;45.602;11.904;2023-04-03T04:45:40;20.10;84.10
59572;DHT22;59406;45.602;11.904;2023-04-03T04:48:06;20.00;83.30
59572;DHT22;59406;45.602;11.904;2023-04-03T04:50:32;20.10;83.50
59572;DHT22;59406;45.602;11.904;2023-04-03T04:52:58;20.10;85.60
59572;DHT22;59406;45.602;11.904;2023-04-03T04:55:24;20.00;86.20
59572;DHT22;59406;45.602;11.904;2023-04-03T04:57:50;20.00;86.70
59572;DHT22;59406;45.602;11.904;2023-04-03T05:00:16;20.00;87.00
59572;DHT22;59406;45.602;11.904;2023-04-03T05:02:43;20.00;87.00
59572;DHT22;59406;45.602;11.904;2023-04-03T05:05:09;20.00;87.40
59572;DHT22;59406;45.602;11.904;2023-04-03T05:07:35;20.00;86.70
59572;DHT22;59406;45.602;11.904;2023-04-03T05:10:02;20.10;85.90
59572;DHT22;59406;45.602;11.904;2023-04-03T05:12:29;20.00;84.60
59572;DHT22;59406;45.602;11.904;2023-04-03T05:14:55;20.00;85.60
59572;DHT22;59406;45.602;11.904;2023-04-03T05:17:21;20.10;86.00
59572;DHT22;59406;45.602;11.904;2023-04-03T05:19:47;20.00;84.10
59572;DHT22;59406;45.602;11.904;2023-04-03T05:22:12;20.00;82.90
59572;DHT22;59406;45.602;11.904;2023-04-03T05:24:38;19.90;81.80
59572;DHT22;59406;45.602;11.904;2023-04-03T05:27:05;20.10;80.50
59572;DHT22;59406;45.602;11.904;2023-04-03T05:29:31;20.00;80.40
59572;DHT22;59406;45.602;11.904;2023-04-03T05:31:57;20.10;80.20
59572;DHT22;59406;45.602;11.904;2023-04-03T05:34:23;20.20;80.10
59572;DHT22;59406;45.602;11.904;2023-04-03T05:36:49;20.10;80.30
59572;DHT22;59406;45.602;11.904;2023-04-03T05:39:15;20.10;80.10
59572;DHT22;59406;45.602;11.904;2023-04-03T05:41:41;20.20;80.10
59572;DHT22;59406;45.602;11.904;2023-04-03T05:44:07;20.20;80.10
59572;DHT22;59406;45.602;11.904;2023-04-03T05:46:33;20.20;80.30
59572;DHT22;59406;45.602;11.904;2023-04-03T05:48:59;20.30;80.70
59572;DHT22;59406;45.602;11.904;2023-04-03T05:51:33;20.30;80.90
59572;DHT22;59406;45.602;11.904;2023-04-03T05:56:37;20.40;79.30
59572;DHT22;59406;45.602;11.904;2023-04-03T05:59:03;20.40;79.40
59572;DHT22;59406;45.602;11.904;2023-04-03T06:01:29;20.60;78.60
59572;DHT22;59406;45.602;11.904;2023-04-03T06:03:55;20.80;78.10
59572;DHT22;59406;45.602;11.904;2023-04-03T06:06:21;21.00;76.60
59572;DHT22;59406;45.602;11.904;2023-04-03T06:08:47;21.30;75.20
59572;DHT22;59406;45.602;11.904;2023-04-03T06:11:14;21.60;74.40
59572;DHT22;59406;45.602;11.904;2023-04-03T06:13:40;21.70;73.50
59572;DHT22;59406;45.602;11.904;2023-04-03T06:16:06;21.90;73.20
59572;DHT22;59406;45.602;11.904;2023-04-03T06:18:32;22.00;72.40
59572;DHT22;59406;45.602;11.904;2023-04-03T06:20:58;22.00;72.20
59572;DHT22;59406;45.602;11.904;2023-04-03T06:23:24;22.00;72.20
59572;DHT22;59406;45.602;11.904;2023-04-03T06:25:50;22.00;72.20
59572;DHT22;59406;45.602;11.904;2023-04-03T06:28:16;21.90;72.60
59572;DHT22;59406;45.602;11.904;2023-04-03T06:30:41;21.70;72.90
59572;DHT22;59406;45.602;11.904;2023-04-03T06:33:07;21.70;73.00
59572;DHT22;59406;45.602;11.904;2023-04-03T06:35:33;21.60;73.00
59572;DHT22;59406;45.602;11.904;2023-04-03T06:38:00;21.50;73.30
59572;DHT22;59406;45.602;11.904;2023-04-03T06:40:26;21.60;73.60
59572;DHT22;59406;45.602;11.904;2023-04-03T06:42:52;21.60;73.70
59572;DHT22;59406;45.602;11.904;2023-04-03T06:45:18;21.70;73.60
59572;DHT22;59406;45.602;11.904;2023-04-03T06:47:45;21.70;73.20
59572;DHT22;59406;45.602;11.904;2023-04-03T06:50:12;21.60;73.10
59572;DHT22;59406;45.602;11.904;2023-04-03T06:52:40;21.50;73.20
59572;DHT22;59406;45.602;11.904;2023-04-03T06:55:06;21.40;73.60
59572;DHT22;59406;45.602;11.904;2023-04-03T06:57:33;21.30;74.00
59572;DHT22;59406;45.602;11.904;2023-04-03T06:59:59;21.10;74.10
59572;DHT22;59406;45.602;11.904;2023-04-03T07:02:25;21.00;74.70
59572;DHT22;59406;45.602;11.904;2023-04-03T07:04:51;21.00;74.30
59572;DHT22;59406;45.602;11.904;2023-04-03T07:07:17;21.00;74.80
59572;DHT22;59406;45.602;11.904;2023-04-03T07:09:43;20.90;74.70
59572;DHT22;59406;45.602;11.904;2023-04-03T07:12:09;20.80;76.00
59572;DHT22;59406;45.602;11.904;2023-04-03T07:14:36;20.70;76.00
59572;DHT22;59406;45.602;11.904;2023-04-03T07:17:02;20.70;76.10
59572;DHT22;59406;45.602;11.904;2023-04-03T07:19:28;20.70;76.40
59572;DHT22;59406;45.602;11.904;2023-04-03T07:21:54;20.70;76.70
59572;DHT22;59406;45.602;11.904;2023-04-03T07:24:20;20.60;77.00
59572;DHT22;59406;45.602;11.904;2023-04-03T07:26:50;20.60;77.40
59572;DHT22;59406;45.602;11.904;2023-04-03T07:29:17;20.60;77.20
59572;DHT22;59406;45.602;11.904;2023-04-03T07:31:43;20.60;77.50
59572;DHT22;59406;45.602;11.904;2023-04-03T07:34:10;20.60;77.40
59572;DHT22;59406;45.602;11.904;2023-04-03T07:36:36;20.60;77.30
59572;DHT22;59406;45.602;11.904;2023-04-03T07:39:03;20.60;77.20
59572;DHT22;59406;45.602;11.904;2023-04-03T07:41:29;20.60;77.20
59572;DHT22;59406;45.602;11.904;2023-04-03T07:43:56;20.60;77.10
59572;DHT22;59406;45.602;11.904;2023-04-03T07:46:22;20.60;77.20
59572;DHT22;59406;45.602;11.904;2023-04-03T07:48:48;20.50;77.10
59572;DHT22;59406;45.602;11.904;2023-04-03T07:51:15;20.60;77.20
59572;DHT22;59406;45.602;11.904;2023-04-03T07:53:41;20.50;77.40
59572;DHT22;59406;45.602;11.904;2023-04-03T07:56:08;20.50;77.50
59572;DHT22;59406;45.602;11.904;2023-04-03T07:58:34;20.40;77.30
59572;DHT22;59406;45.602;11.904;2023-04-03T08:01:01;20.50;77.00
59572;DHT22;59406;45.602;11.904;2023-04-03T08:03:27;20.50;77.20
59572;DHT22;59406;45.602;11.904;2023-04-03T08:08:21;20.50;77.40
59572;DHT22;59406;45.602;11.904;2023-04-03T08:10:54;20.50;76.40
59572;DHT22;59406;45.602;11.904;2023-04-03T08:13:20;20.50;76.20
59572;DHT22;59406;45.602;11.904;2023-04-03T08:15:47;20.50;77.30
59572;DHT22;59406;45.602;11.904;2023-04-03T08:18:14;20.40;77.20
59572;DHT22;59406;45.602;11.904;2023-04-03T08:20:41;20.50;76.90
59572;DHT22;59406;45.602;11.904;2023-04-03T08:23:08;20.60;76.70
59572;DHT22;59406;45.602;11.904;2023-04-03T08:25:38;20.60;76.90
59572;DHT22;59406;45.602;11.904;2023-04-03T08:28:04;20.50;76.70
59572;DHT22;59406;45.602;11.904;2023-04-03T08:30:31;20.50;76.50
59572;DHT22;59406;45.602;11.904;2023-04-03T08:32:57;20.60;76.20
59572;DHT22;59406;45.602;11.904;2023-04-03T08:35:23;20.50;76.30
59572;DHT22;59406;45.602;11.904;2023-04-03T08:37:48;20.60;76.70
59572;DHT22;59406;45.602;11.904;2023-04-03T08:40:16;20.50;76.50
59572;DHT22;59406;45.602;11.904;2023-04-03T08:45:18;20.50;76.60
59572;DHT22;59406;45.602;11.904;2023-04-03T08:47:57;20.50;77.00
59572;DHT22;59406;45.602;11.904;2023-04-03T08:50:33;20.60;76.30
59572;DHT22;59406;45.602;11.904;2023-04-03T08:53:02;20.60;76.40
59572;DHT22;59406;45.602;11.904;2023-04-03T08:55:40;20.50;76.60
59572;DHT22;59406;45.602;11.904;2023-04-03T09:00:54;20.60;76.50
59572;DHT22;59406;45.602;11.904;2023-04-03T09:03:22;20.60;76.00
59572;DHT22;59406;45.602;11.904;2023-04-03T09:06:02;20.60;76.60
59572;DHT22;59406;45.602;11.904;2023-04-03T09:14:02;20.60;77.30
59572;DHT22;59406;45.602;11.904;2023-04-03T09:16:54;20.70;76.20
59572;DHT22;59406;45.602;11.904;2023-04-03T09:19:36;20.80;74.60
59572;DHT22;59406;45.602;11.904;2023-04-03T09:24:36;20.70;76.50
59572;DHT22;59406;45.602;11.904;2023-04-03T09:27:09;20.70;76.70
59572;DHT22;59406;45.602;11.904;2023-04-03T09:29:41;20.70;76.50
59572;DHT22;59406;45.602;11.904;2023-04-03T09:32:31;20.70;75.90
59572;DHT22;59406;45.602;11.904;2023-04-03T09:35:01;20.60;74.80
59572;DHT22;59406;45.602;11.904;2023-04-03T09:37:44;20.70;75.80
59572;DHT22;59406;45.602;11.904;2023-04-03T09:43:00;20.80;78.40
59572;DHT22;59406;45.602;11.904;2023-04-03T09:45:29;20.70;78.70
59572;DHT22;59406;45.602;11.904;2023-04-03T09:48:16;20.70;77.20
59572;DHT22;59406;45.602;11.904;2023-04-03T09:53:42;20.70;77.70
59572;DHT22;59406;45.602;11.904;2023-04-03T09:58:49;20.80;77.00
59572;DHT22;59406;45.602;11.904;2023-04-03T10:01:26;20.80;75.80
59572;DHT22;59406;45.602;11.904;2023-04-03T10:04:08;20.80;75.10
59572;DHT22;59406;45.602;11.904;2023-04-03T10:06:37;20.70;75.20
59572;DHT22;59406;45.602;11.904;2023-04-03T10:09:20;20.70;76.70
59572;DHT22;59406;45.602;11.904;2023-04-03T10:12:12;20.80;76.90
59572;DHT22;59406;45.602;11.904;2023-04-03T10:14:55;20.80;73.90
59572;DHT22;59406;45.602;11.904;2023-04-03T10:31:29;20.70;77.30
59572;DHT22;59406;45.602;11.904;2023-04-03T10:39:45;20.70;78.00
59572;DHT22;59406;45.602;11.904;2023-04-03T10:50:43;20.70;75.70
59572;DHT22;59406;45.602;11.904;2023-04-03T10:53:29;20.70;75.90
59572;DHT22;59406;45.602;11.904;2023-04-03T10:56:26;20.80;75.20
59572;DHT22;59406;45.602;11.904;2023-04-03T11:01:36;20.70;75.60
59572;DHT22;59406;45.602;11.904;2023-04-03T11:04:05;20.70;76.20
59572;DHT22;59406;45.602;11.904;2023-04-03T11:06:37;20.70;75.30
59572;DHT22;59406;45.602;11.904;2023-04-03T11:09:21;20.70;76.50
59572;DHT22;59406;45.602;11.904;2023-04-03T11:11:53;20.80;78.70
59572;DHT22;59406;45.602;11.904;2023-04-03T11:14:27;20.80;77.50
59572;DHT22;59406;45.602;11.904;2023-04-03T11:20:04;20.70;75.20
59572;DHT22;59406;45.602;11.904;2023-04-03T11:22:58;20.70;76.30
59572;DHT22;59406;45.602;11.904;2023-04-03T11:25:25;20.80;74.70
59572;DHT22;59406;45.602;11.904;2023-04-03T11:27:59;20.70;76.00
59572;DHT22;59406;45.602;11.904;2023-04-03T11:35:57;20.70;74.20
59572;DHT22;59406;45.602;11.904;2023-04-03T11:38:30;20.70;75.50
59572;DHT22;59406;45.602;11.904;2023-04-03T11:41:02;20.70;75.20
59572;DHT22;59406;45.602;11.904;2023-04-03T11:43:30;20.70;75.30
59572;DHT22;59406;45.602;11.904;2023-04-03T11:46:04;20.70;75.90
59572;DHT22;59406;45.602;11.904;2023-04-03T11:53:40;20.70;74.10
59572;DHT22;59406;45.602;11.904;2023-04-03T12:01:54;20.70;74.40
59572;DHT22;59406;45.602;11.904;2023-04-03T12:04:23;20.80;77.90
59572;DHT22;59406;45.602;11.904;2023-04-03T12:14:52;20.90;77.90
59572;DHT22;59406;45.602;11.904;2023-04-03T12:17:25;20.80;77.90
59572;DHT22;59406;45.602;11.904;2023-04-03T12:19:52;20.90;77.70
59572;DHT22;59406;45.602;11.904;2023-04-03T12:22:20;20.90;77.60
59572;DHT22;59406;45.602;11.904;2023-04-03T12:24:51;20.90;77.20
59572;DHT22;59406;45.602;11.904;2023-04-03T12:27:30;20.80;76.10
59572;DHT22;59406;45.602;11.904;2023-04-03T12:32:55;20.80;77.20
59572;DHT22;59406;45.602;11.904;2023-04-03T12:35:44;20.80;78.00
59572;DHT22;59406;45.602;11.904;2023-04-03T12:48:58;20.90;78.10
59572;DHT22;59406;45.602;11.904;2023-04-03T12:51:45;20.90;79.20
59572;DHT22;59406;45.602;11.904;2023-04-03T12:54:19;20.90;78.90
59572;DHT22;59406;45.602;11.904;2023-04-03T12:56:46;20.90;78.80
59572;DHT22;59406;45.602;11.904;2023-04-03T12:59:23;20.90;78.90
59572;DHT22;59406;45.602;11.904;2023-04-03T13:01:57;20.90;80.60
59572;DHT22;59406;45.602;11.904;2023-04-03T13:04:23;20.80;79.90
59572;DHT22;59406;45.602;11.904;2023-04-03T13:06:50;20.90;76.90
59572;DHT22;59406;45.602;11.904;2023-04-03T13:09:25;20.90;77.00
59572;DHT22;59406;45.602;11.904;2023-04-03T13:12:12;20.90;77.00
59572;DHT22;59406;45.602;11.904;2023-04-03T13:14:39;21.00;75.90
59572;DHT22;59406;45.602;11.904;2023-04-03T13:17:14;20.90;76.70
59572;DHT22;59406;45.602;11.904;2023-04-03T13:19:41;20.90;74.60
59572;DHT22;59406;45.602;11.904;2023-04-03T13:22:25;20.90;74.40
59572;DHT22;59406;45.602;11.904;2023-04-03T13:24:54;20.90;74.20
59572;DHT22;59406;45.602;11.904;2023-04-03T13:27:21;20.80;74.50
59572;DHT22;59406;45.602;11.904;2023-04-03T13:29:52;20.80;74.50
59572;DHT22;59406;45.602;11.904;2023-04-03T13:32:24;20.80;73.90
59572;DHT22;59406;45.602;11.904;2023-04-03T13:34:51;20.80;74.30
59572;DHT22;59406;45.602;11.904;2023-04-03T13:42:28;20.90;73.80
59572;DHT22;59406;45.602;11.904;2023-04-03T13:47:45;20.80;72.70
59572;DHT22;59406;45.602;11.904;2023-04-03T13:50:13;20.80;74.30
59572;DHT22;59406;45.602;11.904;2023-04-03T13:52:43;20.80;74.60
59572;DHT22;59406;45.602;11.904;2023-04-03T13:55:34;20.80;74.70
59572;DHT22;59406;45.602;11.904;2023-04-03T13:58:16;20.80;74.40
59572;DHT22;59406;45.602;11.904;2023-04-03T14:00:51;20.80;74.80
59572;DHT22;59406;45.602;11.904;2023-04-03T14:06:08;20.80;73.80
59572;DHT22;59406;45.602;11.904;2023-04-03T14:08:35;20.80;74.30
59572;DHT22;59406;45.602;11.904;2023-04-03T14:11:01;20.80;74.20
59572;DHT22;59406;45.602;11.904;2023-04-03T14:13:30;20.80;74.40
59572;DHT22;59406;45.602;11.904;2023-04-03T14:15:56;20.80;74.60
59572;DHT22;59406;45.602;11.904;2023-04-03T14:18:22;20.80;73.70
59572;DHT22;59406;45.602;11.904;2023-04-03T14:20:48;20.80;73.70
59572;DHT22;59406;45.602;11.904;2023-04-03T14:23:15;20.80;74.50
59572;DHT22;59406;45.602;11.904;2023-04-03T14:25:41;20.80;74.80
59572;DHT22;59406;45.602;11.904;2023-04-03T14:28:17;20.70;75.30
59572;DHT22;59406;45.602;11.904;2023-04-03T14:30:44;20.80;74.50
59572;DHT22;59406;45.602;11.904;2023-04-03T14:33:15;20.80;75.50
59572;DHT22;59406;45.602;11.904;2023-04-03T14:35:41;20.80;75.30
59572;DHT22;59406;45.602;11.904;2023-04-03T14:38:29;20.80;75.00
59572;DHT22;59406;45.602;11.904;2023-04-03T14:40:55;20.90;74.30
59572;DHT22;59406;45.602;11.904;2023-04-03T14:43:21;20.80;74.40
59572;DHT22;59406;45.602;11.904;2023-04-03T14:45:48;20.90;74.90
59572;DHT22;59406;45.602;11.904;2023-04-03T14:48:22;20.90;75.10
59572;DHT22;59406;45.602;11.904;2023-04-03T14:50:51;20.80;74.00
59572;DHT22;59406;45.602;11.904;2023-04-03T14:53:17;20.80;74.50
59572;DHT22;59406;45.602;11.904;2023-04-03T14:55:47;20.80;73.90
59572;DHT22;59406;45.602;11.904;2023-04-03T14:58:18;20.90;73.60
59572;DHT22;59406;45.602;11.904;2023-04-03T15:00:44;20.80;72.50
59572;DHT22;59406;45.602;11.904;2023-04-03T15:03:19;20.70;72.40
59572;DHT22;59406;45.602;11.904;2023-04-03T15:05:46;20.80;71.90
59572;DHT22;59406;45.602;11.904;2023-04-03T15:08:24;20.70;72.70
59572;DHT22;59406;45.602;11.904;2023-04-03T15:10:51;20.70;72.10
59572;DHT22;59406;45.602;11.904;2023-04-03T15:13:19;20.70;72.20
59572;DHT22;59406;45.602;11.904;2023-04-03T15:15:46;20.70;71.90
59572;DHT22;59406;45.602;11.904;2023-04-03T15:18:19;20.60;71.50
59572;DHT22;59406;45.602;11.904;2023-04-03T15:20:46;20.60;71.10
59572;DHT22;59406;45.602;11.904;2023-04-03T15:23:13;20.70;71.40
59572;DHT22;59406;45.602;11.904;2023-04-03T15:25:42;20.60;71.80
59572;DHT22;59406;45.602;11.904;2023-04-03T15:28:33;20.60;71.80
59572;DHT22;59406;45.602;11.904;2023-04-03T15:30:59;20.60;71.60
59572;DHT22;59406;45.602;11.904;2023-04-03T15:33:26;20.60;71.80
59572;DHT22;59406;45.602;11.904;2023-04-03T15:35:52;20.50;72.00
59572;DHT22;59406;45.602;11.904;2023-04-03T15:38:18;20.50;72.00
59572;DHT22;59406;45.602;11.904;2023-04-03T15:40:45;20.60;72.20
59572;DHT22;59406;45.602;11.904;2023-04-03T15:43:13;20.70;72.00
59572;DHT22;59406;45.602;11.904;2023-04-03T15:45:40;20.60;71.40
59572;DHT22;59406;45.602;11.904;2023-04-03T15:48:06;20.60;71.90
59572;DHT22;59406;45.602;11.904;2023-04-03T15:50:34;20.50;73.10
59572;DHT22;59406;45.602;11.904;2023-04-03T15:53:00;20.50;71.80
59572;DHT22;59406;45.602;11.904;2023-04-03T15:55:32;20.50;71.60
59572;DHT22;59406;45.602;11.904;2023-04-03T15:57:58;20.50;71.40
59572;DHT22;59406;45.602;11.904;2023-04-03T16:00:47;20.50;71.90
59572;DHT22;59406;45.602;11.904;2023-04-03T16:03:16;20.50;71.80
59572;DHT22;59406;45.602;11.904;2023-04-03T16:05:43;20.50;71.60
59572;DHT22;59406;45.602;11.904;2023-04-03T16:08:09;20.50;72.00
59572;DHT22;59406;45.602;11.904;2023-04-03T16:10:36;20.50;71.80
59572;DHT22;59406;45.602;11.904;2023-04-03T16:13:03;20.40;72.00
59572;DHT22;59406;45.602;11.904;2023-04-03T16:15:30;20.50;71.70
59572;DHT22;59406;45.602;11.904;2023-04-03T16:17:57;20.40;72.10
59572;DHT22;59406;45.602;11.904;2023-04-03T16:20:24;20.50;71.70
59572;DHT22;59406;45.602;11.904;2023-04-03T16:22:50;20.50;71.80
59572;DHT22;59406;45.602;11.904;2023-04-03T16:25:17;20.50;71.80
59572;DHT22;59406;45.602;11.904;2023-04-03T16:27:43;20.50;71.40
59572;DHT22;59406;45.602;11.904;2023-04-03T16:30:09;20.40;71.60
59572;DHT22;59406;45.602;11.904;2023-04-03T16:32:37;20.40;72.00
59572;DHT22;59406;45.602;11.904;2023-04-03T16:35:04;20.40;71.60
59572;DHT22;59406;45.602;11.904;2023-04-03T16:37:30;20.40;72.40
59572;DHT22;59406;45.602;11.904;2023-04-03T16:39:57;20.40;72.70
59572;DHT22;59406;45.602;11.904;2023-04-03T16:42:24;20.40;72.30
59572;DHT22;59406;45.602;11.904;2023-04-03T16:44:51;20.40;72.00
59572;DHT22;59406;45.602;11.904;2023-04-03T16:47:16;20.40;72.20
59572;DHT22;59406;45.602;11.904;2023-04-03T16:49:45;20.50;72.10
59572;DHT22;59406;45.602;11.904;2023-04-03T16:52:12;20.40;72.20
59572;DHT22;59406;45.602;11.904;2023-04-03T16:54:38;20.40;72.40
59572;DHT22;59406;45.602;11.904;2023-04-03T16:57:04;20.40;72.40
59572;DHT22;59406;45.602;11.904;2023-04-03T16:59:30;20.40;73.00
59572;DHT22;59406;45.602;11.904;2023-04-03T17:01:56;20.40;72.60
59572;DHT22;59406;45.602;11.904;2023-04-03T17:04:22;20.40;72.70
59572;DHT22;59406;45.602;11.904;2023-04-03T17:06:48;20.40;72.80
59572;DHT22;59406;45.602;11.904;2023-04-03T17:09:15;20.40;72.90
59572;DHT22;59406;45.602;11.904;2023-04-03T17:11:41;20.30;73.40
59572;DHT22;59406;45.602;11.904;2023-04-03T17:14:07;20.40;72.90
59572;DHT22;59406;45.602;11.904;2023-04-03T17:16:36;20.40;73.20
59572;DHT22;59406;45.602;11.904;2023-04-03T17:19:03;20.40;73.60
59572;DHT22;59406;45.602;11.904;2023-04-03T17:21:29;20.40;73.80
59572;DHT22;59406;45.602;11.904;2023-04-03T17:23:58;20.40;73.70
59572;DHT22;59406;45.602;11.904;2023-04-03T17:26:25;20.40;73.80
59572;DHT22;59406;45.602;11.904;2023-04-03T17:28:52;20.40;73.50